createdAt,value
2018-10-03T00:01:50.060Z,22.00
2018-10-03T00:04:16.885Z,22.00
2018-10-03T00:06:43.713Z,22.00
2018-10-03T00:09:10.536Z,22.00
2018-10-03T00:11:37.505Z,21.90
2018-10-03T00:14:04.333Z,21.90
2018-10-03T00:16:31.155Z,21.90
2018-10-03T00:18:57.994Z,21.90
2018-10-03T00:21:25.013Z,21.90
2018-10-03T00:23:51.842Z,21.90
2018-10-03T00:26:18.673Z,21.90
2018-10-03T00:28:46.253Z,21.90
2018-10-03T00:31:13.204Z,21.90
2018-10-03T00:33:40.038Z,21.90
2018-10-03T00:36:06.868Z,21.90
2018-10-03T00:38:33.864Z,21.90
2018-10-03T00:41:00.776Z,21.90
2018-10-03T00:43:27.613Z,21.90
2018-10-03T00:45:54.698Z,21.90
2018-10-03T00:48:21.620Z,21.90
2018-10-03T00:50:48.654Z,21.90
2018-10-03T00:53:15.489Z,21.90
2018-10-03T00:55:42.320Z,21.90
2018-10-03T00:58:09.327Z,21.90
2018-10-03T01:00:36.139Z,21.90
2018-10-03T01:03:02.962Z,21.90
2018-10-03T01:05:29.807Z,21.90
2018-10-03T01:07:56.648Z,21.90
2018-10-03T01:10:23.499Z,21.90
2018-10-03T01:12:50.358Z,21.90
2018-10-03T01:15:17.182Z,21.90
2018-10-03T01:17:44.040Z,21.90
2018-10-03T01:20:10.899Z,21.90
2018-10-03T01:22:37.699Z,21.90
2018-10-03T01:25:04.551Z,21.90
2018-10-03T01:27:31.391Z,21.90
2018-10-03T01:29:58.219Z,21.90
2018-10-03T01:32:25.052Z,21.90
2018-10-03T01:34:51.895Z,21.90
2018-10-03T01:37:18.739Z,21.90
2018-10-03T01:39:45.572Z,21.90
2018-10-03T01:42:12.414Z,21.80
2018-10-03T01:44:39.221Z,21.80
2018-10-03T01:47:06.041Z,21.90
2018-10-03T01:49:32.991Z,21.80
2018-10-03T01:51:59.840Z,21.80
2018-10-03T01:54:26.690Z,21.80
2018-10-03T01:56:53.518Z,21.80
2018-10-03T01:59:20.339Z,21.80
2018-10-03T02:01:47.206Z,21.80
2018-10-03T02:04:14.026Z,21.80
2018-10-03T02:06:40.933Z,21.80
2018-10-03T02:09:07.744Z,21.80
2018-10-03T02:11:34.591Z,21.80
2018-10-03T02:14:01.427Z,21.80
2018-10-03T02:16:28.234Z,21.80
2018-10-03T02:18:55.057Z,21.80
2018-10-03T02:21:21.946Z,21.80
2018-10-03T02:23:48.785Z,21.80
2018-10-03T02:26:15.597Z,21.80
2018-10-03T02:28:42.435Z,21.80
2018-10-03T02:31:09.321Z,21.80
2018-10-03T02:33:36.175Z,21.80
2018-10-03T02:36:03.003Z,21.80
2018-10-03T02:38:29.817Z,21.80
2018-10-03T02:40:56.686Z,21.80
2018-10-03T02:43:23.517Z,21.80
2018-10-03T02:45:50.358Z,21.80
2018-10-03T02:48:18.034Z,21.80
2018-10-03T02:50:44.883Z,21.80
2018-10-03T02:53:11.715Z,21.80
2018-10-03T02:55:38.550Z,21.80
2018-10-03T02:58:05.389Z,21.80
2018-10-03T03:00:32.259Z,21.80
2018-10-03T03:02:59.076Z,21.80
2018-10-03T03:05:25.928Z,21.80
2018-10-03T03:07:52.768Z,21.70
2018-10-03T03:10:19.629Z,21.70
2018-10-03T03:12:46.450Z,21.70
2018-10-03T03:15:13.291Z,21.70
2018-10-03T03:17:40.114Z,21.70
2018-10-03T03:20:07.005Z,21.70
2018-10-03T03:22:33.842Z,21.70
2018-10-03T03:25:00.725Z,21.70
2018-10-03T03:27:27.585Z,21.70
2018-10-03T03:29:54.422Z,21.70
2018-10-03T03:32:21.268Z,21.70
2018-10-03T03:34:48.092Z,21.70
2018-10-03T03:37:14.942Z,21.70
2018-10-03T03:39:41.782Z,21.70
2018-10-03T03:42:08.625Z,21.70
2018-10-03T03:44:35.470Z,21.70
2018-10-03T03:47:02.303Z,21.70
2018-10-03T03:49:29.163Z,21.70
2018-10-03T03:51:56.165Z,21.70
2018-10-03T03:54:22.974Z,21.70
2018-10-03T03:56:49.800Z,21.70
2018-10-03T03:59:16.628Z,21.70
2018-10-03T04:01:43.547Z,21.70
2018-10-03T04:04:10.419Z,21.70
2018-10-03T04:06:37.265Z,21.70
2018-10-03T04:09:04.077Z,21.70
2018-10-03T04:11:31.107Z,21.70
2018-10-03T04:13:57.925Z,21.70
2018-10-03T04:16:24.758Z,21.70
2018-10-03T04:18:51.566Z,21.70
2018-10-03T04:21:18.477Z,21.70
2018-10-03T04:23:45.310Z,21.70
2018-10-03T04:26:12.129Z,21.70
2018-10-03T04:28:38.978Z,21.70
2018-10-03T04:31:05.889Z,21.70
2018-10-03T04:33:32.689Z,21.70
2018-10-03T04:35:59.624Z,21.70
2018-10-03T04:38:26.455Z,21.80
2018-10-03T04:40:53.436Z,21.80
2018-10-03T04:43:20.278Z,21.80
2018-10-03T04:45:47.522Z,21.90
2018-10-03T04:48:14.634Z,21.90
2018-10-03T04:50:41.624Z,21.90
2018-10-03T04:53:08.455Z,21.90
2018-10-03T04:55:35.275Z,21.90
2018-10-03T04:58:02.108Z,21.90
2018-10-03T05:00:28.989Z,21.90
2018-10-03T05:02:55.804Z,21.90
2018-10-03T05:05:22.630Z,21.90
2018-10-03T05:07:49.477Z,21.90
2018-10-03T05:10:16.353Z,21.90
2018-10-03T05:12:43.200Z,21.70
2018-10-03T05:15:10.017Z,21.60
2018-10-03T05:17:36.860Z,21.60
2018-10-03T05:20:03.678Z,21.60
2018-10-03T05:22:30.503Z,21.70
2018-10-03T05:24:57.326Z,21.80
2018-10-03T05:27:24.543Z,21.80
2018-10-03T05:29:51.369Z,21.90
2018-10-03T05:32:18.471Z,21.90
2018-10-03T05:34:45.281Z,21.90
2018-10-03T05:37:12.122Z,21.90
2018-10-03T05:39:38.989Z,21.90
2018-10-03T05:42:05.928Z,21.90
2018-10-03T05:44:32.759Z,22.00
2018-10-03T05:46:59.585Z,22.00
2018-10-03T05:49:26.420Z,22.10
2018-10-03T05:51:53.317Z,22.10
2018-10-03T05:54:20.166Z,22.10
2018-10-03T05:56:46.998Z,22.20
2018-10-03T05:59:13.820Z,22.20
2018-10-03T06:01:41.712Z,22.20
2018-10-03T06:04:08.591Z,22.20
2018-10-03T06:06:35.420Z,22.20
2018-10-03T06:09:02.254Z,22.20
2018-10-03T06:11:29.272Z,22.20
2018-10-03T06:13:56.095Z,22.20
2018-10-03T06:16:23.010Z,22.20
2018-10-03T06:18:49.871Z,22.20
2018-10-03T06:21:16.891Z,22.20
2018-10-03T06:23:43.744Z,22.20
2018-10-03T06:26:10.582Z,22.20
2018-10-03T06:28:37.420Z,22.20
2018-10-03T06:31:04.440Z,22.20
2018-10-03T06:33:31.287Z,22.20
2018-10-03T06:35:58.098Z,22.20
2018-10-03T06:38:24.938Z,22.20
2018-10-03T06:40:51.794Z,22.20
2018-10-03T06:43:18.636Z,22.20
2018-10-03T06:45:45.528Z,22.20
2018-10-03T06:48:12.275Z,22.20
2018-10-03T06:50:39.171Z,22.30
2018-10-03T06:53:05.992Z,22.30
2018-10-03T06:55:32.864Z,22.30
2018-10-03T06:57:59.737Z,22.30
2018-10-03T07:00:26.753Z,22.30
2018-10-03T07:02:53.590Z,22.30
2018-10-03T07:05:20.419Z,22.30
2018-10-03T07:07:47.245Z,22.30
2018-10-03T07:10:14.442Z,22.30
2018-10-03T07:12:41.234Z,22.30
2018-10-03T07:15:08.072Z,22.30
2018-10-03T07:17:34.947Z,22.30
2018-10-03T07:20:01.815Z,22.30
2018-10-03T07:22:28.596Z,22.30
2018-10-03T07:24:55.437Z,22.30
2018-10-03T07:27:22.265Z,22.30
2018-10-03T07:29:49.365Z,22.30
2018-10-03T07:32:16.516Z,22.30
2018-10-03T07:34:43.309Z,22.30
2018-10-03T07:37:10.130Z,22.30
2018-10-03T07:39:36.955Z,22.30
2018-10-03T07:42:03.897Z,22.30
2018-10-03T07:44:30.728Z,22.30
2018-10-03T07:46:57.578Z,22.30
2018-10-03T07:49:24.396Z,22.30
2018-10-03T07:51:51.296Z,22.30
2018-10-03T07:54:18.156Z,22.30
2018-10-03T07:56:44.976Z,22.40
2018-10-03T07:59:11.884Z,22.40
2018-10-03T08:01:38.647Z,22.40
2018-10-03T08:04:05.472Z,22.30
2018-10-03T08:06:32.301Z,22.30
2018-10-03T08:08:59.141Z,22.30
2018-10-03T08:11:26.015Z,22.30
2018-10-03T08:13:52.845Z,22.30
2018-10-03T08:16:19.669Z,22.30
2018-10-03T08:18:46.486Z,22.40
2018-10-03T08:21:13.388Z,22.40
2018-10-03T08:23:40.246Z,22.40
2018-10-03T08:26:07.070Z,22.40
2018-10-03T08:28:33.896Z,22.40
2018-10-03T08:31:00.958Z,22.40
2018-10-03T08:36:00.830Z,22.40
2018-10-03T08:38:27.729Z,22.40
2018-10-03T08:40:54.704Z,22.50
2018-10-03T08:43:21.530Z,22.50
2018-10-03T08:45:48.354Z,22.50
2018-10-03T08:48:15.178Z,22.50
2018-10-03T08:50:42.063Z,22.50
2018-10-03T08:53:08.882Z,22.50
2018-10-03T08:55:35.717Z,22.50
2018-10-03T08:58:02.594Z,22.50
2018-10-03T09:00:29.418Z,22.50
2018-10-03T09:02:56.254Z,22.50
2018-10-03T09:05:23.109Z,22.50
2018-10-03T09:07:49.990Z,22.50
2018-10-03T09:10:16.785Z,22.50
2018-10-03T09:12:43.625Z,22.60
2018-10-03T09:15:10.442Z,22.60
2018-10-03T09:17:37.361Z,22.60
2018-10-03T09:20:04.371Z,22.60
2018-10-03T09:22:31.195Z,22.60
2018-10-03T09:24:58.025Z,22.60
2018-10-03T09:27:24.870Z,22.60
2018-10-03T09:29:51.718Z,22.60
2018-10-03T09:32:19.026Z,22.50
2018-10-03T09:34:45.837Z,22.50
2018-10-03T09:37:12.666Z,22.60
2018-10-03T09:39:39.567Z,22.50
2018-10-03T09:42:06.310Z,22.60
2018-10-03T09:44:33.197Z,22.60
2018-10-03T09:47:00.015Z,22.60
2018-10-03T09:49:26.863Z,22.60
2018-10-03T09:51:53.735Z,22.60
2018-10-03T09:54:20.582Z,22.60
2018-10-03T09:56:47.399Z,22.60
2018-10-03T09:59:14.226Z,22.70
2018-10-03T10:01:41.108Z,22.70
2018-10-03T10:04:08.064Z,22.70
2018-10-03T10:06:34.892Z,22.70
2018-10-03T10:09:01.763Z,22.60
2018-10-03T10:11:28.798Z,22.60
2018-10-03T10:13:55.514Z,22.60
2018-10-03T10:16:22.330Z,22.60
2018-10-03T10:18:49.164Z,22.60
2018-10-03T10:21:16.052Z,22.60
2018-10-03T10:23:42.895Z,22.70
2018-10-03T10:26:09.761Z,22.60
2018-10-03T10:28:36.582Z,22.60
2018-10-03T10:31:03.418Z,22.70
2018-10-03T10:33:30.250Z,22.60
2018-10-03T10:35:57.075Z,22.60
2018-10-03T10:38:23.898Z,22.60
2018-10-03T10:40:50.832Z,22.60
2018-10-03T10:43:17.680Z,22.60
2018-10-03T10:45:44.456Z,22.60
2018-10-03T10:48:11.278Z,22.60
2018-10-03T10:50:38.178Z,22.60
2018-10-03T10:53:05.006Z,22.60
2018-10-03T10:55:31.848Z,22.60
2018-10-03T10:57:58.678Z,22.60
2018-10-03T11:00:25.550Z,22.60
2018-10-03T11:02:52.374Z,22.60
2018-10-03T11:05:19.204Z,22.50
2018-10-03T11:07:46.038Z,22.60
2018-10-03T11:10:13.825Z,22.60
2018-10-03T11:12:40.626Z,22.60
2018-10-03T11:15:07.489Z,22.60
2018-10-03T11:17:34.324Z,22.60
2018-10-03T11:20:01.336Z,22.70
2018-10-03T11:22:28.141Z,22.70
2018-10-03T11:24:55.107Z,22.80
2018-10-03T11:27:21.843Z,22.80
2018-10-03T11:29:48.698Z,22.80
2018-10-03T11:32:15.796Z,22.80
2018-10-03T11:34:42.628Z,22.80
2018-10-03T11:37:09.480Z,22.70
2018-10-03T11:39:36.298Z,22.70
2018-10-03T11:42:03.146Z,22.70
2018-10-03T11:44:29.985Z,22.70
2018-10-03T11:46:56.808Z,22.70
2018-10-03T11:49:23.638Z,22.70
2018-10-03T11:51:50.485Z,22.70
2018-10-03T11:54:17.311Z,22.70
2018-10-03T11:56:44.148Z,22.70
2018-10-03T11:59:10.986Z,22.70
2018-10-03T12:01:38.058Z,22.70
2018-10-03T12:04:04.922Z,22.70
2018-10-03T12:06:31.824Z,22.70
2018-10-03T12:08:58.661Z,22.70
2018-10-03T12:11:25.627Z,22.70
2018-10-03T12:13:52.463Z,22.70
2018-10-03T12:16:19.282Z,22.70
2018-10-03T12:18:46.189Z,22.80
2018-10-03T12:21:13.215Z,22.80
2018-10-03T12:23:40.060Z,22.80
2018-10-03T12:26:06.908Z,22.80
2018-10-03T12:28:33.723Z,22.70
2018-10-03T12:31:00.621Z,22.80
2018-10-03T12:33:27.573Z,22.70
2018-10-03T12:35:54.297Z,22.70
2018-10-03T12:38:21.124Z,22.70
2018-10-03T12:40:48.173Z,22.70
2018-10-03T12:43:14.998Z,22.70
2018-10-03T12:45:41.812Z,22.80
2018-10-03T12:48:08.646Z,22.80
2018-10-03T12:50:35.533Z,22.80
2018-10-03T12:53:02.400Z,22.80
2018-10-03T12:55:29.199Z,22.80
2018-10-03T12:57:56.038Z,22.80
2018-10-03T13:00:22.901Z,22.70
2018-10-03T13:02:49.722Z,22.80
2018-10-03T13:05:16.609Z,22.70
2018-10-03T13:07:43.432Z,22.70
2018-10-03T13:10:10.468Z,22.80
2018-10-03T13:12:37.289Z,22.70
2018-10-03T13:15:04.121Z,22.80
2018-10-03T13:17:30.968Z,22.70
2018-10-03T13:19:57.778Z,22.80
2018-10-03T13:22:25.132Z,22.80
2018-10-03T13:24:51.950Z,22.80
2018-10-03T13:27:18.792Z,22.80
2018-10-03T13:29:45.637Z,22.70
2018-10-03T13:32:12.470Z,22.80
2018-10-03T13:34:39.320Z,22.80
2018-10-03T13:37:06.135Z,22.80
2018-10-03T13:39:32.977Z,22.70
2018-10-03T13:41:59.845Z,22.80
2018-10-03T13:44:26.686Z,22.80
2018-10-03T13:46:53.548Z,22.80
2018-10-03T13:49:20.377Z,22.80
2018-10-03T13:51:47.212Z,22.80
2018-10-03T13:54:14.042Z,22.80
2018-10-03T13:56:40.863Z,22.80
2018-10-03T13:59:07.690Z,22.80
2018-10-03T14:01:34.585Z,22.80
2018-10-03T14:04:01.421Z,22.80
2018-10-03T14:06:28.256Z,22.80
2018-10-03T14:08:55.071Z,22.80
2018-10-03T14:11:21.957Z,22.80
2018-10-03T14:13:48.782Z,22.80
2018-10-03T14:16:15.613Z,22.80
2018-10-03T14:18:42.560Z,22.80
2018-10-03T14:21:09.328Z,22.80
2018-10-03T14:23:36.161Z,22.80
2018-10-03T14:26:02.988Z,22.80
2018-10-03T14:28:29.812Z,22.80
2018-10-03T14:30:56.708Z,22.80
2018-10-03T14:33:23.551Z,22.80
2018-10-03T14:35:50.355Z,22.80
2018-10-03T14:38:17.188Z,22.80
2018-10-03T14:40:44.116Z,22.80
2018-10-03T14:43:11.038Z,22.70
2018-10-03T14:45:38.019Z,22.80
2018-10-03T14:48:04.850Z,22.80
2018-10-03T14:50:31.858Z,22.80
2018-10-03T14:52:58.730Z,22.80
2018-10-03T14:55:25.586Z,22.80
2018-10-03T14:57:52.420Z,22.80
2018-10-03T15:00:19.445Z,22.80
2018-10-03T15:02:46.257Z,22.80
2018-10-03T15:05:13.096Z,22.80
2018-10-03T15:07:39.935Z,22.80
2018-10-03T15:10:06.809Z,22.80
2018-10-03T15:12:33.654Z,22.80
2018-10-03T15:15:00.495Z,22.80
2018-10-03T15:17:27.997Z,22.80
2018-10-03T15:19:54.800Z,22.80
2018-10-03T15:22:21.623Z,22.80
2018-10-03T15:24:48.487Z,22.80
2018-10-03T15:27:15.321Z,22.80
2018-10-03T15:29:42.309Z,22.80
2018-10-03T15:32:09.099Z,22.80
2018-10-03T15:34:35.914Z,22.80
2018-10-03T15:37:02.754Z,22.80
2018-10-03T15:39:29.586Z,22.80
2018-10-03T15:41:56.596Z,22.80
2018-10-03T15:44:23.432Z,22.80
2018-10-03T15:46:50.269Z,22.80
2018-10-03T15:49:17.111Z,22.80
2018-10-03T15:51:43.956Z,22.80
2018-10-03T15:54:10.808Z,22.80
2018-10-03T15:56:37.800Z,22.80
2018-10-03T15:59:04.770Z,22.80
2018-10-03T16:01:31.742Z,22.80
2018-10-03T16:03:58.562Z,22.80
2018-10-03T16:06:25.389Z,22.80
2018-10-03T16:08:52.222Z,22.80
2018-10-03T16:11:19.104Z,22.80
2018-10-03T16:13:45.920Z,22.80
2018-10-03T16:16:12.755Z,22.80
2018-10-03T16:18:39.712Z,22.80
2018-10-03T16:21:06.686Z,22.80
2018-10-03T16:23:33.548Z,22.80
2018-10-03T16:26:00.474Z,22.80
2018-10-03T16:28:27.465Z,22.80
2018-10-03T16:30:55.536Z,22.80
2018-10-03T16:33:22.370Z,22.80
2018-10-03T16:35:49.235Z,22.80
2018-10-03T16:38:16.134Z,22.80
2018-10-03T16:40:43.078Z,22.80
2018-10-03T16:43:09.915Z,22.80
2018-10-03T16:45:36.741Z,22.80
2018-10-03T16:48:04.483Z,22.90
2018-10-03T16:50:31.504Z,22.90
2018-10-03T16:52:58.336Z,22.90
2018-10-03T16:55:25.153Z,22.90
2018-10-03T16:57:51.972Z,22.90
2018-10-03T17:00:18.833Z,22.90
2018-10-03T17:02:45.692Z,22.90
2018-10-03T17:05:12.545Z,22.90
2018-10-03T17:07:39.376Z,22.90
2018-10-03T17:10:06.403Z,22.80
2018-10-03T17:12:33.242Z,22.90
2018-10-03T17:15:00.092Z,22.80
2018-10-03T17:17:28.000Z,22.80
2018-10-03T17:19:54.851Z,22.80
2018-10-03T17:22:21.689Z,22.80
2018-10-03T17:24:48.536Z,22.80
2018-10-03T17:27:15.383Z,22.80
2018-10-03T17:29:43.487Z,22.80
2018-10-03T17:32:10.433Z,22.80
2018-10-03T17:34:37.262Z,22.80
2018-10-03T17:37:04.109Z,22.80
2018-10-03T17:39:30.924Z,22.80
2018-10-03T17:41:57.820Z,22.80
2018-10-03T17:44:24.658Z,22.80
2018-10-03T17:46:51.522Z,22.80
2018-10-03T17:49:18.365Z,22.80
2018-10-03T17:51:45.430Z,22.80
2018-10-03T17:54:12.246Z,22.80
2018-10-03T17:56:39.071Z,22.80
2018-10-03T17:59:05.913Z,22.80
2018-10-03T18:01:32.768Z,22.80
2018-10-03T18:03:59.594Z,22.80
2018-10-03T18:06:26.438Z,22.80
2018-10-03T18:08:53.312Z,22.80
2018-10-03T18:11:20.340Z,22.80
2018-10-03T18:13:47.306Z,22.80
2018-10-03T18:16:14.037Z,22.80
2018-10-03T18:18:40.848Z,22.80
2018-10-03T18:21:07.713Z,22.80
2018-10-03T18:23:34.547Z,22.80
2018-10-03T18:26:01.382Z,22.80
2018-10-03T18:28:28.232Z,22.80
2018-10-03T18:30:55.325Z,22.90
2018-10-03T18:33:22.434Z,22.80
2018-10-03T18:35:49.452Z,22.90
2018-10-03T18:38:16.570Z,22.90
2018-10-03T18:40:43.740Z,22.90
2018-10-03T18:43:10.874Z,22.90
2018-10-03T18:45:37.998Z,22.80
2018-10-03T18:48:05.131Z,22.80
2018-10-03T18:50:32.388Z,22.90
2018-10-03T18:52:59.502Z,22.90
2018-10-03T18:55:26.617Z,22.90
2018-10-03T18:57:53.753Z,22.90
2018-10-03T19:00:20.943Z,22.90
2018-10-03T19:02:49.017Z,22.90
2018-10-03T19:05:16.143Z,22.90
2018-10-03T19:07:43.702Z,22.90
2018-10-03T19:10:11.009Z,22.90
2018-10-03T19:12:38.245Z,22.90
2018-10-03T19:15:05.333Z,22.90
2018-10-03T19:17:33.364Z,22.90
2018-10-03T19:20:00.620Z,22.90
2018-10-03T19:22:27.754Z,22.90
2018-10-03T19:24:54.877Z,22.90
2018-10-03T19:27:21.969Z,22.90
2018-10-03T19:29:49.084Z,22.90
2018-10-03T19:32:16.136Z,22.80
2018-10-03T19:34:43.222Z,22.80
2018-10-03T19:37:10.325Z,22.80
2018-10-03T19:39:37.431Z,22.80
2018-10-03T19:42:04.537Z,22.80
2018-10-03T19:44:31.569Z,22.80
2018-10-03T19:46:58.524Z,22.80
2018-10-03T19:49:25.390Z,22.80
2018-10-03T19:51:52.363Z,22.80
2018-10-03T19:54:19.315Z,22.80
2018-10-03T19:56:46.140Z,22.80
2018-10-03T19:59:12.962Z,22.80
2018-10-03T20:01:39.936Z,22.80
2018-10-03T20:04:06.828Z,22.80
2018-10-03T20:06:33.587Z,22.80
2018-10-03T20:09:00.423Z,22.80
2018-10-03T20:11:27.317Z,22.80
2018-10-03T20:13:54.220Z,22.80
2018-10-03T20:16:20.952Z,22.80
2018-10-03T20:18:47.773Z,22.80
2018-10-03T20:21:14.742Z,22.80
2018-10-03T20:23:41.528Z,22.80
2018-10-03T20:26:08.343Z,22.80
2018-10-03T20:28:35.178Z,22.80
2018-10-03T20:31:02.072Z,22.70
2018-10-03T20:33:28.902Z,22.70
2018-10-03T20:35:55.743Z,22.70
2018-10-03T20:38:22.569Z,22.70
2018-10-03T20:40:49.426Z,22.70
2018-10-03T20:43:16.252Z,22.70
2018-10-03T20:45:43.116Z,22.70
2018-10-03T20:48:09.913Z,22.60
2018-10-03T20:50:36.806Z,22.60
2018-10-03T20:53:03.652Z,22.60
2018-10-03T20:55:30.494Z,22.60
2018-10-03T20:57:57.332Z,22.60
2018-10-03T21:00:24.268Z,22.60
2018-10-03T21:02:50.998Z,22.60
2018-10-03T21:05:17.831Z,22.50
2018-10-03T21:07:44.658Z,22.50
2018-10-03T21:10:11.554Z,22.50
2018-10-03T21:12:38.378Z,22.50
2018-10-03T21:15:05.218Z,22.50
2018-10-03T21:17:32.731Z,22.50
2018-10-03T21:19:59.738Z,22.50
2018-10-03T21:22:26.564Z,22.50
2018-10-03T21:24:53.385Z,22.50
2018-10-03T21:27:20.231Z,22.50
2018-10-03T21:29:47.055Z,22.50
2018-10-03T21:32:13.893Z,22.40
2018-10-03T21:34:40.714Z,22.40
2018-10-03T21:37:07.544Z,22.40
2018-10-03T21:39:34.374Z,22.40
2018-10-03T21:42:01.204Z,22.40
2018-10-03T21:44:28.046Z,22.40
2018-10-03T21:46:55.086Z,22.40
2018-10-03T21:49:21.911Z,22.40
2018-10-03T21:51:48.892Z,22.40
2018-10-03T21:54:15.721Z,22.40
2018-10-03T21:56:42.534Z,22.40
2018-10-03T21:59:09.367Z,22.40
2018-10-03T22:01:36.278Z,22.40
2018-10-03T22:04:03.113Z,22.40
2018-10-03T22:06:29.967Z,22.30
2018-10-03T22:08:56.795Z,22.30
2018-10-03T22:11:23.647Z,22.30
2018-10-03T22:13:50.523Z,22.30
2018-10-03T22:16:17.318Z,22.30
2018-10-03T22:18:44.147Z,22.30
2018-10-03T22:21:11.020Z,22.30
2018-10-03T22:23:37.875Z,22.30
2018-10-03T22:26:04.728Z,22.30
2018-10-03T22:28:31.541Z,22.30
2018-10-03T22:30:58.394Z,22.40
2018-10-03T22:33:25.234Z,22.40
2018-10-03T22:35:52.069Z,22.40
2018-10-03T22:38:18.901Z,22.30
2018-10-03T22:40:45.754Z,22.30
2018-10-03T22:43:12.585Z,22.30
2018-10-03T22:45:39.421Z,22.30
2018-10-03T22:48:06.255Z,22.30
2018-10-03T22:50:33.131Z,22.30
2018-10-03T22:52:59.979Z,22.30
2018-10-03T22:55:26.818Z,22.30
2018-10-03T22:57:53.979Z,22.30
2018-10-03T23:00:21.132Z,22.30
2018-10-03T23:02:47.994Z,22.30
2018-10-03T23:05:14.837Z,22.20
2018-10-03T23:07:41.669Z,22.20
2018-10-03T23:10:08.501Z,22.20
2018-10-03T23:12:35.341Z,22.20
2018-10-03T23:15:02.168Z,22.20
2018-10-03T23:17:29.224Z,22.20
2018-10-03T23:19:56.058Z,22.20
2018-10-03T23:22:22.881Z,22.20
2018-10-03T23:24:49.710Z,22.20
2018-10-03T23:27:16.535Z,22.20
2018-10-03T23:29:43.594Z,22.20
2018-10-03T23:32:10.611Z,22.20
2018-10-03T23:34:37.443Z,22.20
2018-10-03T23:37:04.294Z,22.20
2018-10-03T23:39:31.395Z,22.20
2018-10-03T23:41:58.372Z,22.20
2018-10-03T23:44:25.307Z,22.20
2018-10-03T23:46:52.175Z,22.20
2018-10-03T23:49:19.127Z,22.20
2018-10-03T23:51:46.063Z,22.20
2018-10-03T23:54:12.895Z,22.20
2018-10-03T23:56:39.766Z,22.20
2018-10-03T23:59:06.799Z,22.20
